sensor_id;sensor_type;location;lat;lon;timestamp;P1;durP1;ratioP1;P2;durP2;ratioP2
22111;SDS011;11222;50.872;4.312;2023-01-09T00:00:42;2.80;;;1.95;;
22111;SDS011;11222;50.872;4.312;2023-01-09T00:03:09;2.80;;;1.95;;
22111;SDS011;11222;50.872;4.312;2023-01-09T00:05:35;4.18;;;1.83;;
22111;SDS011;11222;50.872;4.312;2023-01-09T00:08:01;5.07;;;1.85;;
22111;SDS011;11222;50.872;4.312;2023-01-09T00:10:26;4.60;;;2.05;;
22111;SDS011;11222;50.872;4.312;2023-01-09T00:12:52;4.22;;;1.88;;
22111;SDS011;11222;50.872;4.312;2023-01-09T00:15:17;3.25;;;1.98;;
22111;SDS011;11222;50.872;4.312;2023-01-09T00:17:43;3.67;;;2.03;;
22111;SDS011;11222;50.872;4.312;2023-01-09T00:20:12;4.40;;;2.05;;
22111;SDS011;11222;50.872;4.312;2023-01-09T00:22:38;3.53;;;1.95;;
22111;SDS011;11222;50.872;4.312;2023-01-09T00:25:04;3.30;;;2.08;;
22111;SDS011;11222;50.872;4.312;2023-01-09T00:27:31;2.97;;;1.80;;
22111;SDS011;11222;50.872;4.312;2023-01-09T00:29:57;5.78;;;2.08;;
22111;SDS011;11222;50.872;4.312;2023-01-09T00:32:23;4.18;;;1.80;;
22111;SDS011;11222;50.872;4.312;2023-01-09T00:34:49;2.90;;;1.80;;
22111;SDS011;11222;50.872;4.312;2023-01-09T00:37:15;5.00;;;1.80;;
22111;SDS011;11222;50.872;4.312;2023-01-09T00:39:41;3.25;;;1.80;;
22111;SDS011;11222;50.872;4.312;2023-01-09T00:42:08;3.75;;;2.10;;
22111;SDS011;11222;50.872;4.312;2023-01-09T00:44:37;4.53;;;1.80;;
22111;SDS011;11222;50.872;4.312;2023-01-09T00:47:11;5.25;;;2.10;;
22111;SDS011;11222;50.872;4.312;2023-01-09T00:49:41;4.07;;;2.17;;
22111;SDS011;11222;50.872;4.312;2023-01-09T00:52:08;4.70;;;1.92;;
22111;SDS011;11222;50.872;4.312;2023-01-09T00:54:36;3.63;;;2.25;;
22111;SDS011;11222;50.872;4.312;2023-01-09T00:57:03;3.28;;;1.80;;
22111;SDS011;11222;50.872;4.312;2023-01-09T00:59:28;2.40;;;1.90;;
22111;SDS011;11222;50.872;4.312;2023-01-09T01:01:54;2.45;;;1.70;;
22111;SDS011;11222;50.872;4.312;2023-01-09T01:04:20;6.13;;;2.25;;
22111;SDS011;11222;50.872;4.312;2023-01-09T01:07:04;2.88;;;1.70;;
22111;SDS011;11222;50.872;4.312;2023-01-09T01:09:48;5.10;;;1.88;;
22111;SDS011;11222;50.872;4.312;2023-01-09T01:12:14;2.28;;;1.70;;
22111;SDS011;11222;50.872;4.312;2023-01-09T01:14:40;3.95;;;1.92;;
22111;SDS011;11222;50.872;4.312;2023-01-09T01:17:06;4.45;;;1.90;;
22111;SDS011;11222;50.872;4.312;2023-01-09T01:19:33;4.85;;;1.85;;
22111;SDS011;11222;50.872;4.312;2023-01-09T01:22:00;5.75;;;1.70;;
22111;SDS011;11222;50.872;4.312;2023-01-09T01:24:26;6.32;;;1.77;;
22111;SDS011;11222;50.872;4.312;2023-01-09T01:26:52;5.50;;;1.95;;
22111;SDS011;11222;50.872;4.312;2023-01-09T01:29:18;4.57;;;1.92;;
22111;SDS011;11222;50.872;4.312;2023-01-09T01:31:44;7.20;;;1.92;;
22111;SDS011;11222;50.872;4.312;2023-01-09T01:34:10;7.68;;;1.75;;
22111;SDS011;11222;50.872;4.312;2023-01-09T01:36:36;7.57;;;1.77;;
22111;SDS011;11222;50.872;4.312;2023-01-09T01:39:01;7.15;;;1.90;;
22111;SDS011;11222;50.872;4.312;2023-01-09T01:41:27;4.90;;;1.92;;
22111;SDS011;11222;50.872;4.312;2023-01-09T01:44:03;3.60;;;1.90;;
22111;SDS011;11222;50.872;4.312;2023-01-09T01:46:32;3.88;;;1.98;;
22111;SDS011;11222;50.872;4.312;2023-01-09T01:49:00;5.18;;;1.75;;
22111;SDS011;11222;50.872;4.312;2023-01-09T01:51:36;4.28;;;1.77;;
22111;SDS011;11222;50.872;4.312;2023-01-09T01:54:08;3.35;;;1.63;;
22111;SDS011;11222;50.872;4.312;2023-01-09T01:56:43;4.45;;;2.08;;
22111;SDS011;11222;50.872;4.312;2023-01-09T01:59:22;4.40;;;1.80;;
22111;SDS011;11222;50.872;4.312;2023-01-09T02:01:53;6.60;;;2.00;;
22111;SDS011;11222;50.872;4.312;2023-01-09T02:04:22;5.95;;;1.80;;
22111;SDS011;11222;50.872;4.312;2023-01-09T02:06:49;4.65;;;1.80;;
22111;SDS011;11222;50.872;4.312;2023-01-09T02:09:17;5.35;;;1.77;;
22111;SDS011;11222;50.872;4.312;2023-01-09T02:11:47;5.47;;;1.83;;
22111;SDS011;11222;50.872;4.312;2023-01-09T02:14:18;5.63;;;1.70;;
22111;SDS011;11222;50.872;4.312;2023-01-09T02:21:50;5.90;;;1.70;;
22111;SDS011;11222;50.872;4.312;2023-01-09T02:24:35;6.80;;;1.90;;
22111;SDS011;11222;50.872;4.312;2023-01-09T02:33:36;8.18;;;1.63;;
22111;SDS011;11222;50.872;4.312;2023-01-09T02:39:06;7.15;;;2.08;;
22111;SDS011;11222;50.872;4.312;2023-01-09T02:44:26;5.20;;;1.75;;
22111;SDS011;11222;50.872;4.312;2023-01-09T02:47:07;6.53;;;1.83;;
22111;SDS011;11222;50.872;4.312;2023-01-09T02:49:52;7.20;;;1.90;;
22111;SDS011;11222;50.872;4.312;2023-01-09T02:59:17;4.13;;;1.80;;
22111;SDS011;11222;50.872;4.312;2023-01-09T03:01:38;7.55;;;1.75;;
22111;SDS011;11222;50.872;4.312;2023-01-09T03:06:46;4.40;;;1.70;;
22111;SDS011;11222;50.872;4.312;2023-01-09T03:09:19;4.65;;;2.03;;
22111;SDS011;11222;50.872;4.312;2023-01-09T03:11:49;5.90;;;1.65;;
22111;SDS011;11222;50.872;4.312;2023-01-09T03:14:21;4.93;;;1.90;;
22111;SDS011;11222;50.872;4.312;2023-01-09T03:16:51;4.75;;;1.65;;
22111;SDS011;11222;50.872;4.312;2023-01-09T03:19:21;7.50;;;2.03;;
22111;SDS011;11222;50.872;4.312;2023-01-09T03:21:50;5.25;;;1.98;;
22111;SDS011;11222;50.872;4.312;2023-01-09T03:24:18;6.68;;;1.60;;
22111;SDS011;11222;50.872;4.312;2023-01-09T03:26:44;3.60;;;1.40;;
22111;SDS011;11222;50.872;4.312;2023-01-09T03:29:10;4.57;;;1.80;;
22111;SDS011;11222;50.872;4.312;2023-01-09T03:31:36;4.72;;;1.77;;
22111;SDS011;11222;50.872;4.312;2023-01-09T03:34:01;6.55;;;2.00;;
22111;SDS011;11222;50.872;4.312;2023-01-09T03:36:27;9.00;;;1.70;;
22111;SDS011;11222;50.872;4.312;2023-01-09T03:38:53;4.95;;;2.15;;
22111;SDS011;11222;50.872;4.312;2023-01-09T03:41:19;6.20;;;2.10;;
22111;SDS011;11222;50.872;4.312;2023-01-09T03:43:45;7.68;;;1.83;;
22111;SDS011;11222;50.872;4.312;2023-01-09T03:46:12;7.30;;;2.13;;
22111;SDS011;11222;50.872;4.312;2023-01-09T03:48:41;8.20;;;2.10;;
22111;SDS011;11222;50.872;4.312;2023-01-09T03:51:07;5.18;;;1.80;;
22111;SDS011;11222;50.872;4.312;2023-01-09T03:53:32;6.90;;;1.95;;
22111;SDS011;11222;50.872;4.312;2023-01-09T03:55:58;7.88;;;1.98;;
22111;SDS011;11222;50.872;4.312;2023-01-09T03:58:25;6.40;;;1.90;;
22111;SDS011;11222;50.872;4.312;2023-01-09T04:00:51;9.07;;;2.10;;
22111;SDS011;11222;50.872;4.312;2023-01-09T04:03:21;7.78;;;1.90;;
22111;SDS011;11222;50.872;4.312;2023-01-09T04:05:47;9.65;;;2.20;;
22111;SDS011;11222;50.872;4.312;2023-01-09T04:08:14;4.97;;;1.77;;
22111;SDS011;11222;50.872;4.312;2023-01-09T04:10:42;8.13;;;2.00;;
22111;SDS011;11222;50.872;4.312;2023-01-09T04:13:17;9.07;;;2.08;;
22111;SDS011;11222;50.872;4.312;2023-01-09T04:15:43;6.93;;;2.08;;
22111;SDS011;11222;50.872;4.312;2023-01-09T04:18:09;8.30;;;1.95;;
22111;SDS011;11222;50.872;4.312;2023-01-09T04:20:34;8.57;;;2.47;;
22111;SDS011;11222;50.872;4.312;2023-01-09T04:23:00;8.35;;;2.58;;
22111;SDS011;11222;50.872;4.312;2023-01-09T04:25:26;7.43;;;2.08;;
22111;SDS011;11222;50.872;4.312;2023-01-09T04:27:52;8.00;;;2.28;;
22111;SDS011;11222;50.872;4.312;2023-01-09T04:30:17;7.38;;;2.75;;
22111;SDS011;11222;50.872;4.312;2023-01-09T04:32:43;12.60;;;2.67;;
22111;SDS011;11222;50.872;4.312;2023-01-09T04:35:09;10.32;;;2.38;;
22111;SDS011;11222;50.872;4.312;2023-01-09T04:37:35;11.20;;;2.65;;
22111;SDS011;11222;50.872;4.312;2023-01-09T04:40:04;8.18;;;2.03;;
22111;SDS011;11222;50.872;4.312;2023-01-09T04:42:34;9.93;;;2.33;;
22111;SDS011;11222;50.872;4.312;2023-01-09T04:45:00;11.40;;;2.75;;
22111;SDS011;11222;50.872;4.312;2023-01-09T04:47:26;10.88;;;2.55;;
22111;SDS011;11222;50.872;4.312;2023-01-09T04:49:52;10.63;;;2.47;;
22111;SDS011;11222;50.872;4.312;2023-01-09T04:52:18;8.10;;;2.10;;
22111;SDS011;11222;50.872;4.312;2023-01-09T04:54:43;7.60;;;2.30;;
22111;SDS011;11222;50.872;4.312;2023-01-09T04:57:09;8.43;;;2.22;;
22111;SDS011;11222;50.872;4.312;2023-01-09T04:59:35;9.27;;;2.50;;
22111;SDS011;11222;50.872;4.312;2023-01-09T05:02:00;6.72;;;2.08;;
22111;SDS011;11222;50.872;4.312;2023-01-09T05:04:27;10.23;;;2.70;;
22111;SDS011;11222;50.872;4.312;2023-01-09T05:06:52;9.00;;;2.50;;
22111;SDS011;11222;50.872;4.312;2023-01-09T05:09:18;6.65;;;2.10;;
22111;SDS011;11222;50.872;4.312;2023-01-09T05:11:44;10.35;;;2.47;;
22111;SDS011;11222;50.872;4.312;2023-01-09T05:14:09;5.80;;;2.20;;
22111;SDS011;11222;50.872;4.312;2023-01-09T05:16:36;9.07;;;2.17;;
22111;SDS011;11222;50.872;4.312;2023-01-09T05:19:02;9.20;;;2.15;;
22111;SDS011;11222;50.872;4.312;2023-01-09T05:21:28;9.38;;;2.20;;
22111;SDS011;11222;50.872;4.312;2023-01-09T05:23:54;8.90;;;2.10;;
22111;SDS011;11222;50.872;4.312;2023-01-09T05:26:20;10.18;;;2.35;;
22111;SDS011;11222;50.872;4.312;2023-01-09T05:28:52;5.40;;;1.80;;
22111;SDS011;11222;50.872;4.312;2023-01-09T05:31:20;9.50;;;2.15;;
22111;SDS011;11222;50.872;4.312;2023-01-09T05:33:46;11.05;;;2.20;;
22111;SDS011;11222;50.872;4.312;2023-01-09T05:36:12;7.25;;;1.85;;
22111;SDS011;11222;50.872;4.312;2023-01-09T05:38:39;6.10;;;1.92;;
22111;SDS011;11222;50.872;4.312;2023-01-09T05:41:04;7.63;;;2.35;;
22111;SDS011;11222;50.872;4.312;2023-01-09T05:43:31;8.05;;;2.40;;
22111;SDS011;11222;50.872;4.312;2023-01-09T05:45:56;8.43;;;2.20;;
22111;SDS011;11222;50.872;4.312;2023-01-09T05:48:22;6.97;;;1.95;;
22111;SDS011;11222;50.872;4.312;2023-01-09T05:50:48;9.23;;;2.10;;
22111;SDS011;11222;50.872;4.312;2023-01-09T05:53:13;5.10;;;2.13;;
22111;SDS011;11222;50.872;4.312;2023-01-09T05:55:39;11.07;;;2.42;;
22111;SDS011;11222;50.872;4.312;2023-01-09T05:58:05;7.50;;;2.45;;
22111;SDS011;11222;50.872;4.312;2023-01-09T06:00:30;8.70;;;2.10;;
22111;SDS011;11222;50.872;4.312;2023-01-09T06:02:56;5.93;;;2.10;;
22111;SDS011;11222;50.872;4.312;2023-01-09T06:05:22;8.10;;;2.22;;
22111;SDS011;11222;50.872;4.312;2023-01-09T06:07:48;8.70;;;2.22;;
22111;SDS011;11222;50.872;4.312;2023-01-09T06:10:14;7.30;;;2.20;;
22111;SDS011;11222;50.872;4.312;2023-01-09T06:12:40;7.28;;;1.90;;
22111;SDS011;11222;50.872;4.312;2023-01-09T06:15:08;10.27;;;2.38;;
22111;SDS011;11222;50.872;4.312;2023-01-09T06:17:34;7.10;;;1.70;;
22111;SDS011;11222;50.872;4.312;2023-01-09T06:20:00;9.00;;;2.20;;
22111;SDS011;11222;50.872;4.312;2023-01-09T06:22:26;7.28;;;2.00;;
22111;SDS011;11222;50.872;4.312;2023-01-09T06:24:52;8.82;;;1.75;;
22111;SDS011;11222;50.872;4.312;2023-01-09T06:27:18;5.82;;;2.17;;
22111;SDS011;11222;50.872;4.312;2023-01-09T06:29:44;5.70;;;1.70;;
22111;SDS011;11222;50.872;4.312;2023-01-09T06:32:09;5.60;;;1.83;;
22111;SDS011;11222;50.872;4.312;2023-01-09T06:34:35;4.95;;;1.42;;
22111;SDS011;11222;50.872;4.312;2023-01-09T06:37:01;6.75;;;1.50;;
22111;SDS011;11222;50.872;4.312;2023-01-09T06:39:27;5.90;;;1.67;;
22111;SDS011;11222;50.872;4.312;2023-01-09T06:41:52;4.80;;;1.63;;
22111;SDS011;11222;50.872;4.312;2023-01-09T06:44:18;6.80;;;2.13;;
22111;SDS011;11222;50.872;4.312;2023-01-09T06:46:44;5.22;;;1.48;;
22111;SDS011;11222;50.872;4.312;2023-01-09T06:49:09;5.00;;;1.67;;
22111;SDS011;11222;50.872;4.312;2023-01-09T06:51:35;4.32;;;1.60;;
22111;SDS011;11222;50.872;4.312;2023-01-09T06:54:01;7.03;;;2.03;;
22111;SDS011;11222;50.872;4.312;2023-01-09T06:56:26;7.97;;;1.67;;
22111;SDS011;11222;50.872;4.312;2023-01-09T06:58:52;9.00;;;1.95;;
22111;SDS011;11222;50.872;4.312;2023-01-09T07:01:18;4.80;;;1.73;;
22111;SDS011;11222;50.872;4.312;2023-01-09T07:03:43;5.00;;;1.50;;
22111;SDS011;11222;50.872;4.312;2023-01-09T07:06:10;3.42;;;1.40;;
22111;SDS011;11222;50.872;4.312;2023-01-09T07:08:36;4.97;;;1.85;;
22111;SDS011;11222;50.872;4.312;2023-01-09T07:11:02;3.05;;;1.20;;
22111;SDS011;11222;50.872;4.312;2023-01-09T07:13:27;6.45;;;2.08;;
22111;SDS011;11222;50.872;4.312;2023-01-09T07:15:53;6.40;;;1.58;;
22111;SDS011;11222;50.872;4.312;2023-01-09T07:18:19;7.43;;;1.50;;
22111;SDS011;11222;50.872;4.312;2023-01-09T07:20:44;4.38;;;1.40;;
22111;SDS011;11222;50.872;4.312;2023-01-09T07:23:11;5.72;;;1.40;;
22111;SDS011;11222;50.872;4.312;2023-01-09T07:25:37;4.35;;;1.40;;
22111;SDS011;11222;50.872;4.312;2023-01-09T07:28:03;10.57;;;2.15;;
22111;SDS011;11222;50.872;4.312;2023-01-09T07:30:29;8.23;;;1.50;;
22111;SDS011;11222;50.872;4.312;2023-01-09T07:32:55;6.45;;;1.52;;
22111;SDS011;11222;50.872;4.312;2023-01-09T07:35:20;8.43;;;2.30;;
22111;SDS011;11222;50.872;4.312;2023-01-09T07:37:46;4.28;;;1.30;;
22111;SDS011;11222;50.872;4.312;2023-01-09T07:40:12;4.03;;;1.50;;
22111;SDS011;11222;50.872;4.312;2023-01-09T07:42:38;5.20;;;1.40;;
22111;SDS011;11222;50.872;4.312;2023-01-09T07:45:04;8.07;;;1.90;;
22111;SDS011;11222;50.872;4.312;2023-01-09T07:47:30;8.35;;;2.10;;
22111;SDS011;11222;50.872;4.312;2023-01-09T07:49:56;4.20;;;1.40;;
22111;SDS011;11222;50.872;4.312;2023-01-09T07:52:21;5.93;;;1.90;;
22111;SDS011;11222;50.872;4.312;2023-01-09T07:54:47;5.22;;;1.75;;
22111;SDS011;11222;50.872;4.312;2023-01-09T07:57:13;8.50;;;1.83;;
22111;SDS011;11222;50.872;4.312;2023-01-09T07:59:39;6.07;;;1.38;;
22111;SDS011;11222;50.872;4.312;2023-01-09T08:02:04;8.15;;;2.50;;
22111;SDS011;11222;50.872;4.312;2023-01-09T08:04:31;7.78;;;2.53;;
22111;SDS011;11222;50.872;4.312;2023-01-09T08:06:57;8.40;;;2.00;;
22111;SDS011;11222;50.872;4.312;2023-01-09T08:09:23;5.47;;;1.65;;
22111;SDS011;11222;50.872;4.312;2023-01-09T08:11:49;7.70;;;2.03;;
22111;SDS011;11222;50.872;4.312;2023-01-09T08:14:14;6.25;;;1.77;;
22111;SDS011;11222;50.872;4.312;2023-01-09T08:16:40;5.05;;;1.50;;
22111;SDS011;11222;50.872;4.312;2023-01-09T08:19:06;9.80;;;1.60;;
22111;SDS011;11222;50.872;4.312;2023-01-09T08:21:32;8.00;;;2.20;;
22111;SDS011;11222;50.872;4.312;2023-01-09T08:23:58;6.38;;;1.80;;
22111;SDS011;11222;50.872;4.312;2023-01-09T08:26:23;10.63;;;2.08;;
22111;SDS011;11222;50.872;4.312;2023-01-09T08:28:49;4.38;;;1.48;;
22111;SDS011;11222;50.872;4.312;2023-01-09T08:31:15;9.02;;;2.45;;
22111;SDS011;11222;50.872;4.312;2023-01-09T08:33:40;3.60;;;1.63;;
22111;SDS011;11222;50.872;4.312;2023-01-09T08:36:07;6.82;;;2.20;;
22111;SDS011;11222;50.872;4.312;2023-01-09T08:38:33;5.38;;;1.73;;
22111;SDS011;11222;50.872;4.312;2023-01-09T08:40:59;11.70;;;3.92;;
22111;SDS011;11222;50.872;4.312;2023-01-09T08:43:45;5.75;;;1.85;;
22111;SDS011;11222;50.872;4.312;2023-01-09T08:46:29;2.72;;;1.20;;
22111;SDS011;11222;50.872;4.312;2023-01-09T08:49:13;3.93;;;1.27;;
22111;SDS011;11222;50.872;4.312;2023-01-09T08:51:39;4.25;;;1.67;;
22111;SDS011;11222;50.872;4.312;2023-01-09T08:54:05;3.40;;;1.17;;
22111;SDS011;11222;50.872;4.312;2023-01-09T08:56:30;4.43;;;1.30;;
22111;SDS011;11222;50.872;4.312;2023-01-09T08:58:56;4.43;;;1.40;;
22111;SDS011;11222;50.872;4.312;2023-01-09T09:01:21;4.00;;;1.30;;
22111;SDS011;11222;50.872;4.312;2023-01-09T09:03:47;1.83;;;1.20;;
22111;SDS011;11222;50.872;4.312;2023-01-09T09:06:13;1.60;;;1.00;;
22111;SDS011;11222;50.872;4.312;2023-01-09T09:08:39;3.25;;;1.30;;
22111;SDS011;11222;50.872;4.312;2023-01-09T09:11:04;3.50;;;1.00;;
22111;SDS011;11222;50.872;4.312;2023-01-09T09:13:30;5.72;;;1.67;;
22111;SDS011;11222;50.872;4.312;2023-01-09T09:15:57;5.40;;;1.10;;
22111;SDS011;11222;50.872;4.312;2023-01-09T09:18:22;1.77;;;1.10;;
22111;SDS011;11222;50.872;4.312;2023-01-09T09:20:48;8.32;;;1.60;;
22111;SDS011;11222;50.872;4.312;2023-01-09T09:23:14;2.15;;;1.20;;
22111;SDS011;11222;50.872;4.312;2023-01-09T09:25:39;1.60;;;1.00;;
22111;SDS011;11222;50.872;4.312;2023-01-09T09:28:05;4.40;;;1.30;;
22111;SDS011;11222;50.872;4.312;2023-01-09T09:30:31;6.32;;;1.60;;
22111;SDS011;11222;50.872;4.312;2023-01-09T09:32:57;6.95;;;1.88;;
22111;SDS011;11222;50.872;4.312;2023-01-09T09:35:23;3.10;;;1.30;;
22111;SDS011;11222;50.872;4.312;2023-01-09T09:37:56;3.50;;;1.55;;
22111;SDS011;11222;50.872;4.312;2023-01-09T09:46:37;2.55;;;1.40;;
22111;SDS011;11222;50.872;4.312;2023-01-09T09:49:09;3.20;;;1.30;;
22111;SDS011;11222;50.872;4.312;2023-01-09T09:54:37;4.65;;;1.60;;
22111;SDS011;11222;50.872;4.312;2023-01-09T09:57:09;3.78;;;1.40;;
22111;SDS011;11222;50.872;4.312;2023-01-09T09:59:41;6.47;;;1.50;;
22111;SDS011;11222;50.872;4.312;2023-01-09T10:04:33;3.45;;;1.35;;
22111;SDS011;11222;50.872;4.312;2023-01-09T10:07:05;3.92;;;1.35;;
22111;SDS011;11222;50.872;4.312;2023-01-09T10:09:52;6.43;;;1.48;;
22111;SDS011;11222;50.872;4.312;2023-01-09T10:12:27;6.18;;;1.40;;
22111;SDS011;11222;50.872;4.312;2023-01-09T10:14:53;4.15;;;1.38;;
22111;SDS011;11222;50.872;4.312;2023-01-09T10:18:10;5.97;;;1.52;;
22111;SDS011;11222;50.872;4.312;2023-01-09T10:22:56;1.95;;;1.33;;
22111;SDS011;11222;50.872;4.312;2023-01-09T10:26:07;2.65;;;1.63;;
22111;SDS011;11222;50.872;4.312;2023-01-09T10:36:58;5.45;;;1.40;;
22111;SDS011;11222;50.872;4.312;2023-01-09T10:39:48;4.32;;;1.40;;
22111;SDS011;11222;50.872;4.312;2023-01-09T10:44:50;1.52;;;1.27;;
22111;SDS011;11222;50.872;4.312;2023-01-09T10:47:24;6.75;;;1.77;;
22111;SDS011;11222;50.872;4.312;2023-01-09T10:49:54;4.70;;;1.52;;
22111;SDS011;11222;50.872;4.312;2023-01-09T10:52:24;6.63;;;1.83;;
22111;SDS011;11222;50.872;4.312;2023-01-09T10:54:54;3.80;;;1.60;;
22111;SDS011;11222;50.872;4.312;2023-01-09T10:59:56;8.60;;;1.65;;
22111;SDS011;11222;50.872;4.312;2023-01-09T11:02:24;5.15;;;1.60;;
22111;SDS011;11222;50.872;4.312;2023-01-09T11:04:54;3.75;;;1.70;;
22111;SDS011;11222;50.872;4.312;2023-01-09T11:07:41;4.07;;;2.50;;
22111;SDS011;11222;50.872;4.312;2023-01-09T11:10:07;7.68;;;2.67;;
22111;SDS011;11222;50.872;4.312;2023-01-09T11:12:38;3.95;;;1.80;;
22111;SDS011;11222;50.872;4.312;2023-01-09T11:17:45;4.93;;;1.90;;
22111;SDS011;11222;50.872;4.312;2023-01-09T11:22:41;4.72;;;2.20;;
22111;SDS011;11222;50.872;4.312;2023-01-09T11:25:12;4.75;;;2.42;;
22111;SDS011;11222;50.872;4.312;2023-01-09T11:27:39;5.00;;;2.17;;
22111;SDS011;11222;50.872;4.312;2023-01-09T11:32:44;4.40;;;2.15;;
22111;SDS011;11222;50.872;4.312;2023-01-09T11:35:16;4.55;;;2.22;;
22111;SDS011;11222;50.872;4.312;2023-01-09T11:38:11;7.45;;;2.50;;
22111;SDS011;11222;50.872;4.312;2023-01-09T11:40:45;3.97;;;2.08;;
22111;SDS011;11222;50.872;4.312;2023-01-09T11:46:08;7.90;;;2.22;;
22111;SDS011;11222;50.872;4.312;2023-01-09T11:48:54;4.50;;;2.00;;
22111;SDS011;11222;50.872;4.312;2023-01-09T11:51:22;3.83;;;2.15;;
22111;SDS011;11222;50.872;4.312;2023-01-09T11:56:18;4.93;;;2.40;;
22111;SDS011;11222;50.872;4.312;2023-01-09T11:58:44;9.45;;;3.85;;
22111;SDS011;11222;50.872;4.312;2023-01-09T12:01:55;5.70;;;2.50;;
22111;SDS011;11222;50.872;4.312;2023-01-09T12:06:52;6.78;;;2.45;;
22111;SDS011;11222;50.872;4.312;2023-01-09T12:15:02;5.32;;;2.53;;
22111;SDS011;11222;50.872;4.312;2023-01-09T12:31:47;4.90;;;2.92;;
22111;SDS011;11222;50.872;4.312;2023-01-09T12:34:45;10.27;;;2.80;;
22111;SDS011;11222;50.872;4.312;2023-01-09T12:40:30;11.13;;;3.30;;
22111;SDS011;11222;50.872;4.312;2023-01-09T12:43:22;6.30;;;3.47;;
22111;SDS011;11222;50.872;4.312;2023-01-09T12:49:23;8.20;;;3.55;;
22111;SDS011;11222;50.872;4.312;2023-01-09T12:52:02;9.57;;;3.70;;
22111;SDS011;11222;50.872;4.312;2023-01-09T12:55:43;10.52;;;3.72;;
22111;SDS011;11222;50.872;4.312;2023-01-09T12:57:55;12.07;;;3.30;;
22111;SDS011;11222;50.872;4.312;2023-01-09T13:00:26;6.60;;;3.17;;
22111;SDS011;11222;50.872;4.312;2023-01-09T13:05:25;7.90;;;3.30;;
22111;SDS011;11222;50.872;4.312;2023-01-09T13:08:02;10.63;;;3.53;;
22111;SDS011;11222;50.872;4.312;2023-01-09T13:10:39;7.32;;;2.88;;
22111;SDS011;11222;50.872;4.312;2023-01-09T13:13:14;7.70;;;3.10;;
22111;SDS011;11222;50.872;4.312;2023-01-09T13:15:46;14.88;;;3.47;;
22111;SDS011;11222;50.872;4.312;2023-01-09T13:21:06;8.82;;;3.08;;
22111;SDS011;11222;50.872;4.312;2023-01-09T13:28:47;8.48;;;2.75;;
22111;SDS011;11222;50.872;4.312;2023-01-09T13:34:01;9.32;;;2.63;;
22111;SDS011;11222;50.872;4.312;2023-01-09T13:36:31;9.35;;;3.17;;
22111;SDS011;11222;50.872;4.312;2023-01-09T13:39:02;8.80;;;3.03;;
22111;SDS011;11222;50.872;4.312;2023-01-09T13:41:29;7.57;;;2.80;;
22111;SDS011;11222;50.872;4.312;2023-01-09T13:44:19;10.85;;;3.53;;
22111;SDS011;11222;50.872;4.312;2023-01-09T13:46:47;12.52;;;3.78;;
22111;SDS011;11222;50.872;4.312;2023-01-09T13:52:03;15.63;;;3.60;;
22111;SDS011;11222;50.872;4.312;2023-01-09T13:59:52;8.43;;;3.45;;
22111;SDS011;11222;50.872;4.312;2023-01-09T14:05:01;8.25;;;3.08;;
22111;SDS011;11222;50.872;4.312;2023-01-09T14:07:31;7.32;;;3.00;;
22111;SDS011;11222;50.872;4.312;2023-01-09T14:10:02;9.32;;;3.05;;
22111;SDS011;11222;50.872;4.312;2023-01-09T14:12:32;9.82;;;2.97;;
22111;SDS011;11222;50.872;4.312;2023-01-09T14:15:18;14.05;;;3.80;;
22111;SDS011;11222;50.872;4.312;2023-01-09T14:17:59;14.05;;;3.25;;
22111;SDS011;11222;50.872;4.312;2023-01-09T14:20:37;9.63;;;3.15;;
22111;SDS011;11222;50.872;4.312;2023-01-09T14:23:05;20.98;;;3.25;;
22111;SDS011;11222;50.872;4.312;2023-01-09T14:25:31;12.23;;;2.80;;
22111;SDS011;11222;50.872;4.312;2023-01-09T14:38:45;16.73;;;3.90;;
22111;SDS011;11222;50.872;4.312;2023-01-09T14:41:26;12.40;;;3.65;;
22111;SDS011;11222;50.872;4.312;2023-01-09T14:44:26;9.43;;;2.85;;
22111;SDS011;11222;50.872;4.312;2023-01-09T14:46:53;12.52;;;3.20;;
22111;SDS011;11222;50.872;4.312;2023-01-09T14:54:58;12.00;;;3.42;;
22111;SDS011;11222;50.872;4.312;2023-01-09T14:57:27;21.63;;;3.92;;
22111;SDS011;11222;50.872;4.312;2023-01-09T15:05:02;11.73;;;3.53;;
22111;SDS011;11222;50.872;4.312;2023-01-09T15:07:33;10.50;;;3.00;;
22111;SDS011;11222;50.872;4.312;2023-01-09T15:10:05;9.85;;;3.25;;
22111;SDS011;11222;50.872;4.312;2023-01-09T15:12:32;10.60;;;3.53;;
22111;SDS011;11222;50.872;4.312;2023-01-09T15:14:59;11.43;;;2.80;;
22111;SDS011;11222;50.872;4.312;2023-01-09T15:19:58;8.95;;;2.60;;
22111;SDS011;11222;50.872;4.312;2023-01-09T15:22:35;7.20;;;2.55;;
22111;SDS011;11222;50.872;4.312;2023-01-09T15:26:02;11.23;;;4.07;;
22111;SDS011;11222;50.872;4.312;2023-01-09T15:27:59;9.48;;;2.83;;
22111;SDS011;11222;50.872;4.312;2023-01-09T15:30:27;6.70;;;2.50;;
22111;SDS011;11222;50.872;4.312;2023-01-09T15:33:10;10.27;;;2.88;;
22111;SDS011;11222;50.872;4.312;2023-01-09T15:35:41;8.20;;;3.00;;
22111;SDS011;11222;50.872;4.312;2023-01-09T15:38:10;8.27;;;2.90;;
22111;SDS011;11222;50.872;4.312;2023-01-09T15:40:41;10.15;;;3.33;;
22111;SDS011;11222;50.872;4.312;2023-01-09T15:43:06;6.50;;;3.33;;
22111;SDS011;11222;50.872;4.312;2023-01-09T15:45:42;8.05;;;3.60;;
22111;SDS011;11222;50.872;4.312;2023-01-09T15:50:49;8.60;;;3.45;;
22111;SDS011;11222;50.872;4.312;2023-01-09T15:53:26;9.85;;;3.20;;
22111;SDS011;11222;50.872;4.312;2023-01-09T15:58:37;6.80;;;3.13;;
22111;SDS011;11222;50.872;4.312;2023-01-09T16:01:06;11.10;;;4.10;;
22111;SDS011;11222;50.872;4.312;2023-01-09T16:03:55;10.20;;;3.70;;
22111;SDS011;11222;50.872;4.312;2023-01-09T16:06:30;7.35;;;3.50;;
22111;SDS011;11222;50.872;4.312;2023-01-09T16:09:01;8.15;;;3.47;;
22111;SDS011;11222;50.872;4.312;2023-01-09T16:11:35;9.40;;;2.97;;
22111;SDS011;11222;50.872;4.312;2023-01-09T16:16:40;5.93;;;2.95;;
22111;SDS011;11222;50.872;4.312;2023-01-09T16:19:26;9.05;;;3.20;;
22111;SDS011;11222;50.872;4.312;2023-01-09T16:22:23;9.60;;;3.05;;
22111;SDS011;11222;50.872;4.312;2023-01-09T16:24:50;8.90;;;2.85;;
22111;SDS011;11222;50.872;4.312;2023-01-09T16:27:27;8.30;;;4.10;;
22111;SDS011;11222;50.872;4.312;2023-01-09T16:30:00;12.43;;;3.40;;
22111;SDS011;11222;50.872;4.312;2023-01-09T16:32:34;12.52;;;3.97;;
22111;SDS011;11222;50.872;4.312;2023-01-09T16:35:16;11.32;;;4.07;;
22111;SDS011;11222;50.872;4.312;2023-01-09T16:37:44;11.50;;;4.80;;
22111;SDS011;11222;50.872;4.312;2023-01-09T16:42:39;9.20;;;4.93;;
22111;SDS011;11222;50.872;4.312;2023-01-09T16:45:44;7.70;;;4.57;;
22111;SDS011;11222;50.872;4.312;2023-01-09T16:50:44;12.10;;;5.00;;
22111;SDS011;11222;50.872;4.312;2023-01-09T16:53:14;12.10;;;4.82;;
22111;SDS011;11222;50.872;4.312;2023-01-09T16:55:42;13.10;;;4.30;;
22111;SDS011;11222;50.872;4.312;2023-01-09T16:58:12;9.50;;;5.32;;
22111;SDS011;11222;50.872;4.312;2023-01-09T17:01:07;10.07;;;4.43;;
22111;SDS011;11222;50.872;4.312;2023-01-09T17:03:34;8.95;;;5.00;;
22111;SDS011;11222;50.872;4.312;2023-01-09T17:06:00;11.50;;;5.72;;
22111;SDS011;11222;50.872;4.312;2023-01-09T17:08:29;11.90;;;5.25;;
22111;SDS011;11222;50.872;4.312;2023-01-09T17:11:01;11.50;;;5.28;;
22111;SDS011;11222;50.872;4.312;2023-01-09T17:13:28;12.50;;;4.60;;
22111;SDS011;11222;50.872;4.312;2023-01-09T17:15:54;12.25;;;5.13;;
22111;SDS011;11222;50.872;4.312;2023-01-09T17:18:22;9.07;;;4.80;;
22111;SDS011;11222;50.872;4.312;2023-01-09T17:20:53;12.40;;;5.38;;
22111;SDS011;11222;50.872;4.312;2023-01-09T17:23:21;10.57;;;5.35;;
22111;SDS011;11222;50.872;4.312;2023-01-09T17:25:50;9.35;;;5.55;;
22111;SDS011;11222;50.872;4.312;2023-01-09T17:28:39;14.88;;;5.85;;
22111;SDS011;11222;50.872;4.312;2023-01-09T17:31:10;10.63;;;5.70;;
22111;SDS011;11222;50.872;4.312;2023-01-09T17:33:37;13.57;;;6.18;;
22111;SDS011;11222;50.872;4.312;2023-01-09T17:36:15;15.57;;;6.30;;
22111;SDS011;11222;50.872;4.312;2023-01-09T17:38:43;15.40;;;6.22;;